Nearby METAR Reports

 

KAGC - Pittsburgh/Alleg, Pennsylvania, USA
Distance from station: N 14mi, 23km
Updated: Thu, Mar-04-2021 10:53am EST
Overcast
Overcast
 Wind from NW
Wind: NW 13 mph , 20 km/h, Gust: 24 mph , 39 km/h
Temperature: 36°F , 2°C
Wind Chill: 27°F , -3°C
Dew Point: 23°F , -5°C
Humidity: 60%
Barometer: 30.04 inHg , 1017.3 hPa
Clouds: Overcast
Visibility: 10 miles , 16 km
Cloud details: Mostly cloudy 2700 ft
Overcast 3400 ft
2021/03/04 15:53 KAGC 041553Z 32011G21KT 10SM BKN027 OVC034 02/M05 A3004 RMK AO2 PK WND 34026/1539 SLP184 T00171050
KAFJ - Washington, Pennsylvania, USA
Distance from station: W 17mi, 28km
Updated: Thu, Mar-04-2021 11:03am EST
Overcast
Overcast
 Wind from WNW
Wind: WNW 14 mph , 22 km/h, Gust: 20 mph , 31 km/h
Temperature: 36°F , 2°C
Wind Chill: 27°F , -3°C
Dew Point: 25°F , -4°C
Humidity: 65%
Barometer: 30.09 inHg , 1019 hPa
Clouds: Overcast
Visibility: 10 miles , 16 km
Cloud details: Overcast 3300 ft
2021/03/04 16:03 KAFJ 041603Z AUTO 30012G17KT 10SM OVC033 02/M04 A3009 RMK AO2 FZRANO
 
KLBE - Latrobe, Pennsylvania, USA
Distance from station: ENE 30mi, 48km
Updated: Thu, Mar-04-2021 10:47am EST
Overcast
Overcast
 Wind from W
Wind: W 16 mph , 26 km/h, Gust: 23 mph , 37 km/h
Temperature: 36°F , 2°C
Wind Chill: 26°F , -3°C
Dew Point: 25°F , -4°C
Humidity: 65%
Barometer: 30.03 inHg , 1016.9 hPa
Clouds: Overcast
Visibility: 10 miles , 16 km
Cloud details: Overcast 2900 ft
2021/03/04 15:47 KLBE 041547Z 27014G20KT 10SM OVC029 02/M04 A3003
KPIT - Pittsburgh, Pennsylvania, USA
Distance from station: NW 30mi, 48km
Updated: Thu, Mar-04-2021 11:21am EST
Overcast
Overcast
 Wind from NNW
Wind: NNW 13 mph , 20 km/h
Temperature: 34°F , 1°C
Wind Chill: 25°F , -4°C
Dew Point: 23°F , -5°C
Humidity: 65%
Barometer: 30.06 inHg , 1017.9 hPa
Clouds: Overcast
Visibility: 10 miles , 16 km
Cloud details: Mostly cloudy 3000 ft
Overcast 3700 ft
2021/03/04 16:21 KPIT 041621Z 34011KT 10SM BKN030 OVC037 01/M05 A3006 RMK AO2 T00111050
 
KMGW - Morgantown, West Virginia, USA
Distance from station: S 34mi, 55km
Updated: Thu, Mar-04-2021 11:23am EST
Mostly cloudy
Mostly cloudy
 Wind from NNW
Wind: NNW 9 mph , 15 km/h, Gust: 18 mph , 30 km/h
Temperature: 41°F , 5°C
Wind Chill: 35°F , 2°C
Dew Point: 27°F , -3°C
Humidity: 57%
Barometer: 30.05 inHg , 1017.6 hPa
Clouds: Mostly cloudy
Visibility: 10 miles , 16 km
Cloud details: Few Clouds 2800 ft
Mostly cloudy 3300 ft
Mostly cloudy 4200 ft
2021/03/04 16:23 KMGW 041623Z 34008G16KT 10SM FEW028 BKN033 BKN042 05/M03 A3005 RMK AO2 T00501028 $
KHLG - Wheeling, West Virginia, USA
Distance from station: W 37mi, 60km
Updated: Thu, Mar-04-2021 11:24am EST
Overcast
Overcast
 Wind from WNW
Wind: WNW 13 mph , 20 km/h, Gust: 22 mph , 35 km/h
Temperature: 36°F , 2°C
Wind Chill: 27°F , -3°C
Dew Point: 23°F , -5°C
Humidity: 60%
Barometer: 30.08 inHg , 1018.6 hPa
Clouds: Overcast
Visibility: 10 miles , 16 km
Cloud details: Overcast 3100 ft
2021/03/04 16:24 KHLG 041624Z 29011G19KT 10SM OVC031 02/M05 A3008 RMK AO2 T00221050
 
KBTP - Butler Co., Pennsylvania, USA
Distance from station: N 43mi, 69km
Updated: Thu, Mar-04-2021 10:56am EST
Overcast
Overcast
 Wind from NW
Wind: NW 12 mph , 19 km/h, Gust: 17 mph , 28 km/h
Temperature: 34°F , 1°C
Wind Chill: 25°F , -4°C
Dew Point: 21°F , -6°C
Humidity: 60%
Barometer: 30.05 inHg , 1017.6 hPa
Clouds: Overcast
Visibility: 10 miles , 16 km
Cloud details: Overcast 3000 ft
2021/03/04 15:56 KBTP 041556Z AUTO 31010G15KT 10SM OVC030 01/M06 A3005 RMK AO2 SLP195 T00111061 FZRANO
KBVI - Beaver Falls Arp, Pennsylvania, USA
Distance from station: NNW 49mi, 79km
Updated: Thu, Mar-04-2021 11:15am EST
Overcast
Overcast
 Wind from NW
Wind: NW 10 mph , 17 km/h, Gust: 17 mph , 28 km/h
Temperature: 34°F , 1°C
Wind Chill: 26°F , -3°C
Dew Point: 23°F , -5°C
Humidity: 65%
Barometer: 30.07 inHg , 1018.3 hPa
Clouds: Overcast
Visibility: 10 miles , 16 km
Cloud details: Overcast 3300 ft
2021/03/04 16:15 KBVI 041615Z AUTO 32009G15KT 290V350 10SM OVC033 01/M05 A3007 RMK AO2 T00091054
 
K2G4 - Garrett Co, Maryland, USA
Distance from station: SE 51mi, 82km
Updated: Thu, Mar-04-2021 11:15am EST
Overcast
Overcast
 Wind from NW
Wind: NW 14 mph , 22 km/h, Gust: 20 mph , 31 km/h
Temperature: 32°F , 0°C
Wind Chill: 22°F , -6°C
Dew Point: 23°F , -5°C
Humidity: 69%
Barometer: 29.93 inHg , 1013.5 hPa
Clouds: Overcast
Visibility: 10 miles , 16 km
Cloud details: Mostly cloudy 2000 ft
Overcast 2600 ft
2021/03/04 16:15 K2G4 041615Z AUTO 31012G17KT 282V342 10SM BKN020 OVC026 00/M05 A2993 RMK AO1
KIDI - Indiana/Stewart, Pennsylvania, USA
Distance from station: NE 56mi, 90km
Updated: Thu, Mar-04-2021 11:15am EST
Overcast
Overcast
 Wind from NW
Wind: NW 13 mph , 20 km/h, Gust: 22 mph , 35 km/h
Temperature: 34°F , 1°C
Wind Chill: 25°F , -4°C
Dew Point: 21°F , -6°C
Humidity: 60%
Barometer: 30.04 inHg , 1017.3 hPa
Clouds: Overcast
Visibility: 10 miles , 16 km
Cloud details: Overcast 3300 ft
2021/03/04 16:15 KIDI 041615Z AUTO 31011G19KT 10SM OVC033 01/M06 A3004 RMK A01
 
KJST - Johnstown, Pennsylvania, USA
Distance from station: ENE 60mi, 96km
Updated: Thu, Mar-04-2021 10:54am EST
Overcast
Overcast
 Wind from WNW
Wind: WNW 22 mph , 35 km/h, Gust: 29 mph , 46 km/h
Temperature: 32°F , 0°C
Wind Chill: 19°F , -7°C
Dew Point: 21°F , -6°C
Humidity: 64%
Barometer: 29.92 inHg , 1013.2 hPa
Clouds: Overcast
Visibility: 10 miles , 16 km
Cloud details: Overcast 2500 ft
2021/03/04 15:54 KJST 041554Z AUTO 30019G25KT 10SM OVC025 00/M06 A2992 RMK AO2 SLP148 T00001056
KCBE - Cumberland Reg, Maryland, USA
Distance from station: ESE 72mi, 116km
Updated: Thu, Mar-04-2021 11:15am EST
Mostly cloudy
Mostly cloudy
 Wind from NW
Wind: NW 18 mph , 30 km/h, Gust: 32 mph , 52 km/h
Temperature: 45°F , 7°C
Wind Chill: 37°F , 3°C
Dew Point: 25°F , -4°C
Humidity: 46%
Barometer: 30.02 inHg , 1016.6 hPa
Clouds: Mostly cloudy
Visibility: 10 miles , 16 km
Cloud details: Mostly cloudy 4700 ft
Mostly cloudy 6000 ft
2021/03/04 16:15 KCBE 041615Z AUTO 32016G28KT 10SM BKN047 BKN060 07/M04 A3002 RMK AO2 T00751041
 
KILG - Wilmington, Delaware, USA
Distance from station: ESE 234mi, 377km
Updated: Thu, Mar-04-2021 10:51am EST
Overcast
Overcast
 Wind from WNW
Wind: WNW 18 mph , 30 km/h, Gust: 23 mph , 37 km/h
Temperature: 46°F , 8°C
Wind Chill: 39°F , 4°C
Dew Point: 27°F , -3°C
Humidity: 46%
Barometer: 29.89 inHg , 1012.2 hPa
Clouds: Overcast
Visibility: 10 miles , 16 km
Cloud details: Mostly cloudy 4600 ft
Overcast 5500 ft
2021/03/04 15:51 KILG 041551Z 29016G20KT 10SM BKN046 OVC055 08/M03 A2989 RMK AO2 SLP123 T00831028
KTUS - Tucson, Arizona, USA
Distance from station: WSW 1806mi, 3283km
Updated: Thu, Mar-04-2021 10:53am EST
Clear
Clear
 Wind from SSE
Wind: SSE 8 mph , 13 km/h
Temperature: 54°F , 12°C
Dew Point: 39°F , 4°C
Humidity: 58%
Barometer: 30.22 inHg , 1023.4 hPa
Clouds: Clear
Visibility: 10 miles , 16 km
2021/03/04 15:53 KTUS 041553Z 16007KT 10SM CLR 12/04 A3022 RMK AO2 SLP213 T01220039